createdAt,value
2023-04-09T00:02:25.448Z,12.40
2023-04-09T00:04:54.906Z,13.03
2023-04-09T00:07:26.093Z,12.48
2023-04-09T00:09:55.587Z,12.70
2023-04-09T00:12:24.789Z,12.50
2023-04-09T00:14:53.807Z,12.87
2023-04-09T00:17:22.624Z,12.40
2023-04-09T00:19:51.426Z,12.43
2023-04-09T00:22:20.081Z,12.33
2023-04-09T00:24:50.052Z,13.10
2023-04-09T00:27:18.618Z,12.17
2023-04-09T00:29:48.200Z,12.30
2023-04-09T00:32:17.974Z,12.17
2023-04-09T00:34:47.345Z,13.52
2023-04-09T00:37:17.072Z,12.20
2023-04-09T00:39:47.199Z,12.13
2023-04-09T00:42:18.149Z,12.57
2023-04-09T00:44:47.496Z,11.87
2023-04-09T00:47:16.599Z,12.40
2023-04-09T00:49:46.344Z,12.53
2023-04-09T00:52:15.705Z,12.43
2023-04-09T00:54:44.853Z,12.17
2023-04-09T00:57:14.169Z,12.00
2023-04-09T00:59:45.153Z,12.70
2023-04-09T01:02:14.875Z,12.43
2023-04-09T01:04:44.817Z,12.10
2023-04-09T01:07:23.452Z,12.33
2023-04-09T01:10:01.901Z,12.23
2023-04-09T01:12:38.334Z,12.43
2023-04-09T01:15:12.909Z,12.40
2023-04-09T01:17:49.311Z,12.67
2023-04-09T01:20:27.356Z,12.43
2023-04-09T01:23:09.192Z,12.70
2023-04-09T01:26:08.511Z,11.97
2023-04-09T01:28:50.902Z,12.73
2023-04-09T01:31:23.039Z,12.90
2023-04-09T01:33:54.054Z,12.60
2023-04-09T01:36:24.348Z,12.77
2023-04-09T01:38:54.294Z,12.30
2023-04-09T01:41:25.155Z,12.07
2023-04-09T01:43:57.125Z,12.60
2023-04-09T01:46:27.583Z,13.00
2023-04-09T01:49:03.847Z,12.50
2023-04-09T01:51:34.811Z,11.53
2023-04-09T01:54:05.922Z,12.07
2023-04-09T01:56:43.534Z,12.50
2023-04-09T01:59:14.965Z,11.83
2023-04-09T02:01:48.950Z,11.87
2023-04-09T02:04:25.730Z,11.80
2023-04-09T02:07:08.776Z,11.90
2023-04-09T02:16:30.108Z,11.87
2023-04-09T02:22:14.983Z,12.40
2023-04-09T02:24:48.548Z,12.13
2023-04-09T02:27:17.743Z,12.13
2023-04-09T02:29:46.597Z,10.97
2023-04-09T02:32:16.815Z,11.40
2023-04-09T02:34:46.037Z,11.90
2023-04-09T02:37:15.134Z,11.97
2023-04-09T02:39:43.520Z,13.00
2023-04-09T02:42:12.663Z,11.97
2023-04-09T02:44:42.078Z,11.23
2023-04-09T02:47:11.070Z,12.17
2023-04-09T02:49:42.032Z,12.00
2023-04-09T02:52:12.411Z,11.23
2023-04-09T02:54:41.205Z,12.07
2023-04-09T03:00:32.805Z,11.90
2023-04-09T03:03:01.667Z,12.10
2023-04-09T03:05:31.875Z,11.93
2023-04-09T03:08:01.167Z,12.13
2023-04-09T03:10:31.571Z,11.63
2023-04-09T03:13:00.872Z,11.63
2023-04-09T03:15:29.783Z,11.70
2023-04-09T03:17:58.681Z,11.90
2023-04-09T03:20:27.595Z,12.03
2023-04-09T03:22:57.651Z,11.77
2023-04-09T03:25:33.069Z,11.87
2023-04-09T03:28:10.889Z,11.60
2023-04-09T03:30:44.134Z,11.97
2023-04-09T03:33:13.305Z,11.80
2023-04-09T03:36:09.200Z,11.47
2023-04-09T03:39:02.186Z,11.60
2023-04-09T03:41:37.859Z,11.37
2023-04-09T03:44:11.576Z,12.13
2023-04-09T03:47:10.233Z,11.77
2023-04-09T03:49:40.724Z,11.82
2023-04-09T03:52:20.369Z,11.40
2023-04-09T03:54:58.676Z,11.77
2023-04-09T03:57:28.878Z,11.67
2023-04-09T03:59:58.090Z,12.00
2023-04-09T04:02:30.503Z,11.53
2023-04-09T04:05:03.766Z,11.80
2023-04-09T04:07:38.118Z,12.50
2023-04-09T04:10:16.221Z,11.55
2023-04-09T04:12:47.624Z,11.48
2023-04-09T04:15:43.611Z,11.93
2023-04-09T04:18:14.674Z,11.63
2023-04-09T04:20:49.600Z,11.47
2023-04-09T04:23:18.944Z,11.13
2023-04-09T04:25:57.065Z,11.10
2023-04-09T04:28:35.735Z,11.50
2023-04-09T04:31:10.093Z,12.27
2023-04-09T04:33:39.618Z,11.80
2023-04-09T04:36:14.955Z,11.80
2023-04-09T04:38:47.706Z,11.83
2023-04-09T04:41:23.257Z,11.40
2023-04-09T04:44:04.745Z,11.60
2023-04-09T04:46:33.593Z,12.23
2023-04-09T04:49:01.904Z,11.50
2023-04-09T04:51:32.603Z,11.20
2023-04-09T04:54:08.829Z,11.70
2023-04-09T04:56:39.351Z,11.60
2023-04-09T04:59:19.255Z,11.37
2023-04-09T05:02:07.412Z,11.60
2023-04-09T05:04:45.554Z,11.33
2023-04-09T05:07:17.323Z,12.07
2023-04-09T05:09:55.250Z,11.83
2023-04-09T05:12:25.361Z,11.20
2023-04-09T05:14:54.930Z,10.98
2023-04-09T05:17:23.495Z,11.40
2023-04-09T05:19:57.864Z,11.07
2023-04-09T05:22:34.785Z,11.63
2023-04-09T05:25:03.429Z,11.13
2023-04-09T05:27:34.785Z,11.80
2023-04-09T05:30:04.373Z,12.33
2023-04-09T05:32:33.223Z,11.70
2023-04-09T05:35:02.938Z,11.50
2023-04-09T05:37:34.139Z,11.40
2023-04-09T05:43:28.553Z,12.00
2023-04-09T05:45:59.491Z,11.70
2023-04-09T06:08:22.090Z,10.97
2023-04-09T06:18:00.159Z,11.40
2023-04-09T06:24:24.274Z,12.17
2023-04-09T06:31:00.858Z,11.80
2023-04-09T07:22:13.724Z,11.70
2023-04-09T07:24:43.775Z,11.93
2023-04-09T07:27:12.074Z,11.53
2023-04-09T07:29:41.067Z,11.20
2023-04-09T07:32:10.382Z,11.53
2023-04-09T07:34:39.904Z,11.30
2023-04-09T07:37:09.234Z,12.23
2023-04-09T07:39:37.843Z,11.33
2023-04-09T07:42:07.571Z,12.95
2023-04-09T07:44:36.491Z,12.23
2023-04-09T07:47:07.098Z,11.43
2023-04-09T07:49:37.358Z,11.60
2023-04-09T07:52:08.532Z,12.17
2023-04-09T07:54:38.165Z,11.50
2023-04-09T07:57:24.727Z,11.27
2023-04-09T07:59:57.089Z,12.17
2023-04-09T08:05:44.502Z,12.00
2023-04-09T08:15:29.547Z,11.40
2023-04-09T08:17:58.613Z,11.53
2023-04-09T08:20:29.880Z,12.80
2023-04-09T08:22:59.523Z,11.90
2023-04-09T08:25:28.687Z,12.03
2023-04-09T08:27:58.195Z,12.40
2023-04-09T08:30:26.968Z,12.13
2023-04-09T08:32:57.772Z,12.40
2023-04-09T08:47:21.722Z,12.60
2023-04-09T08:49:58.674Z,11.90
2023-04-09T08:52:34.606Z,12.07
2023-04-09T08:55:03.442Z,12.40
2023-04-09T08:57:32.226Z,13.30
2023-04-09T09:00:01.713Z,12.40
2023-04-09T09:02:31.613Z,11.93
2023-04-09T09:05:06.040Z,12.40
2023-04-09T09:10:43.867Z,11.60
2023-04-09T09:13:22.739Z,11.85
2023-04-09T09:16:06.093Z,11.30
2023-04-09T09:18:41.539Z,11.40
2023-04-09T09:21:14.636Z,12.70
2023-04-09T09:23:45.995Z,13.23
2023-04-09T09:26:19.537Z,11.65
2023-04-09T09:28:50.221Z,12.77
2023-04-09T09:31:21.843Z,11.80
2023-04-09T09:33:51.861Z,12.10
2023-04-09T09:36:35.632Z,12.60
2023-04-09T09:39:10.630Z,12.47
2023-04-09T09:41:43.796Z,12.87
2023-04-09T09:47:20.990Z,11.90
2023-04-09T09:49:51.148Z,12.23
2023-04-09T09:52:26.926Z,12.30
2023-04-09T09:54:59.007Z,11.13
2023-04-09T09:57:31.605Z,12.30
2023-04-09T10:00:04.098Z,11.90
2023-04-09T10:02:45.732Z,11.13
2023-04-09T10:05:14.342Z,11.63
2023-04-09T10:07:44.974Z,11.10
2023-04-09T10:10:13.778Z,11.23
2023-04-09T10:12:45.482Z,11.80
2023-04-09T10:15:16.730Z,11.50
2023-04-09T10:17:46.400Z,11.30
2023-04-09T10:20:22.174Z,12.17
2023-04-09T10:22:53.141Z,12.10
2023-04-09T10:25:21.843Z,11.20
2023-04-09T10:28:02.187Z,11.60
2023-04-09T10:30:34.611Z,11.00
2023-04-09T10:33:13.663Z,11.83
2023-04-09T10:35:42.470Z,11.10
2023-04-09T10:38:11.543Z,11.17
2023-04-09T10:40:49.776Z,12.00
2023-04-09T10:43:22.296Z,11.23
2023-04-09T10:45:59.614Z,11.40
2023-04-09T10:48:34.447Z,11.80
2023-04-09T10:51:39.849Z,11.50
2023-04-09T10:54:49.245Z,11.13
2023-04-09T10:57:23.341Z,11.03
2023-04-09T10:59:55.832Z,11.03
2023-04-09T11:03:00.254Z,10.87
2023-04-09T11:05:34.844Z,10.70
2023-04-09T11:08:30.476Z,10.70
2023-04-09T11:11:02.004Z,11.00
2023-04-09T11:13:33.192Z,10.57
2023-04-09T11:16:07.176Z,11.30
2023-04-09T11:18:37.230Z,11.50
2023-04-09T11:21:05.987Z,10.50
2023-04-09T11:23:36.046Z,10.67
2023-04-09T11:26:05.409Z,10.53
2023-04-09T11:28:35.931Z,10.93
2023-04-09T11:31:08.103Z,10.43
2023-04-09T11:33:36.736Z,11.23
2023-04-09T11:36:07.579Z,10.60
2023-04-09T11:38:38.019Z,11.07
2023-04-09T11:41:06.555Z,11.27
2023-04-09T11:43:38.278Z,10.90
2023-04-09T11:46:09.588Z,11.07
2023-04-09T11:48:38.232Z,10.40
2023-04-09T11:51:07.430Z,11.03
2023-04-09T11:53:38.993Z,10.10
2023-04-09T11:56:08.328Z,10.20
2023-04-09T11:58:37.704Z,10.47
2023-04-09T12:01:07.584Z,10.17
2023-04-09T12:03:37.779Z,10.13
2023-04-09T12:06:09.399Z,10.13
2023-04-09T12:08:38.641Z,10.67
2023-04-09T12:11:11.957Z,10.23
2023-04-09T12:13:43.474Z,9.73
2023-04-09T12:16:14.219Z,10.00
2023-04-09T12:18:43.151Z,10.30
2023-04-09T12:21:11.731Z,10.33
2023-04-09T12:23:40.127Z,10.13
2023-04-09T12:26:12.391Z,10.10
2023-04-09T12:28:41.357Z,10.00
2023-04-09T12:31:12.686Z,10.50
2023-04-09T12:33:43.239Z,10.30
2023-04-09T12:36:12.116Z,10.20
2023-04-09T12:38:41.282Z,10.10
2023-04-09T12:41:10.551Z,9.90
2023-04-09T12:43:40.576Z,10.00
2023-04-09T12:46:09.692Z,9.73
2023-04-09T12:48:38.868Z,9.80
2023-04-09T12:51:11.478Z,9.70
2023-04-09T12:53:40.487Z,10.80
2023-04-09T12:56:10.352Z,10.43
2023-04-09T12:58:39.008Z,10.30
2023-04-09T13:01:08.565Z,9.93
2023-04-09T13:03:39.511Z,10.23
2023-04-09T13:06:10.282Z,10.70
2023-04-09T13:08:39.742Z,9.83
2023-04-09T13:11:09.178Z,10.10
2023-04-09T13:13:37.909Z,9.90
2023-04-09T13:16:07.544Z,10.70
2023-04-09T13:18:36.300Z,10.40
2023-04-09T13:21:04.945Z,10.37
2023-04-09T13:23:34.943Z,10.00
2023-04-09T13:26:03.507Z,10.43
2023-04-09T13:28:32.268Z,10.67
2023-04-09T13:31:00.766Z,10.93
2023-04-09T13:33:29.363Z,10.83
2023-04-09T13:35:58.380Z,10.40
2023-04-09T13:38:26.989Z,10.27
2023-04-09T13:40:56.873Z,10.20
2023-04-09T13:43:28.241Z,10.80
2023-04-09T13:45:57.573Z,10.67
2023-04-09T13:48:26.384Z,10.90
2023-04-09T13:50:55.026Z,10.70
2023-04-09T13:53:25.163Z,10.70
2023-04-09T13:55:53.720Z,10.70
2023-04-09T13:58:30.879Z,11.03
2023-04-09T14:01:02.480Z,10.60
2023-04-09T14:03:31.597Z,11.43
2023-04-09T14:06:00.152Z,11.00
2023-04-09T14:08:28.716Z,10.77
2023-04-09T14:10:57.544Z,11.30
2023-04-09T14:13:27.477Z,11.13
2023-04-09T14:15:56.737Z,11.27
2023-04-09T14:18:26.607Z,10.83
2023-04-09T14:20:54.998Z,11.60
2023-04-09T14:23:23.518Z,10.83
2023-04-09T14:25:52.025Z,10.93
2023-04-09T14:28:20.694Z,10.70
2023-04-09T14:30:50.593Z,10.73
2023-04-09T14:33:19.013Z,10.97
2023-04-09T14:35:47.565Z,10.43
2023-04-09T14:38:16.594Z,10.67
2023-04-09T14:40:45.282Z,10.63
2023-04-09T14:43:13.880Z,11.03
2023-04-09T14:45:42.671Z,10.60
2023-04-09T14:48:12.676Z,11.50
2023-04-09T14:50:41.305Z,11.10
2023-04-09T14:53:09.988Z,11.47
2023-04-09T14:55:39.186Z,11.00
2023-04-09T14:58:08.489Z,10.90
2023-04-09T15:00:38.976Z,10.93
2023-04-09T15:03:07.805Z,11.10
2023-04-09T15:05:38.209Z,10.33
2023-04-09T15:08:06.875Z,10.60
2023-04-09T15:10:38.064Z,10.97
2023-04-09T15:13:07.286Z,10.70
2023-04-09T15:15:36.382Z,11.63
2023-04-09T15:18:06.371Z,11.00
2023-04-09T15:20:39.980Z,10.30
2023-04-09T15:23:08.807Z,11.30
2023-04-09T15:25:37.464Z,11.10
2023-04-09T15:28:07.153Z,11.17
2023-04-09T15:30:36.272Z,11.10
2023-04-09T15:33:06.570Z,11.53
2023-04-09T15:35:36.365Z,10.70
2023-04-09T15:38:06.261Z,11.38
2023-04-09T15:40:34.696Z,11.40
2023-04-09T15:43:03.043Z,12.20
2023-04-09T15:45:31.566Z,12.10
2023-04-09T15:48:00.030Z,11.70
2023-04-09T15:50:28.626Z,12.53
2023-04-09T15:52:57.045Z,12.00
2023-04-09T15:55:27.134Z,11.80
2023-04-09T15:57:55.443Z,11.73
2023-04-09T16:00:24.228Z,11.93
2023-04-09T16:02:53.425Z,11.33
2023-04-09T16:05:21.992Z,11.70
2023-04-09T16:07:52.177Z,11.73
2023-04-09T16:10:20.614Z,11.23
2023-04-09T16:12:50.727Z,11.33
2023-04-09T16:15:19.310Z,12.10
2023-04-09T16:17:47.645Z,10.97
2023-04-09T16:20:16.248Z,11.33
2023-04-09T16:22:44.749Z,10.97
2023-04-09T16:25:13.164Z,10.93
2023-04-09T16:27:41.529Z,11.00
2023-04-09T16:30:12.637Z,11.00
2023-04-09T16:32:41.166Z,11.23
2023-04-09T16:35:09.648Z,10.30
2023-04-09T16:37:38.830Z,11.00
2023-04-09T16:40:08.830Z,11.73
2023-04-09T16:42:37.325Z,11.50
2023-04-09T16:45:06.657Z,10.93
2023-04-09T16:47:36.548Z,10.90
2023-04-09T16:50:10.433Z,11.10
2023-04-09T16:52:39.571Z,10.57
2023-04-09T16:55:09.373Z,10.40
2023-04-09T16:57:38.227Z,10.87
2023-04-09T17:00:08.576Z,11.30
2023-04-09T17:02:39.585Z,10.80
2023-04-09T17:05:09.313Z,11.20
2023-04-09T17:07:38.076Z,11.47
2023-04-09T17:10:08.313Z,11.53
2023-04-09T17:12:36.918Z,11.43
2023-04-09T17:15:06.452Z,11.50
2023-04-09T17:17:35.075Z,11.37
2023-04-09T17:20:05.911Z,10.53
2023-04-09T17:22:35.223Z,11.20
2023-04-09T17:25:04.865Z,11.20
2023-04-09T17:27:33.306Z,11.30
2023-04-09T17:30:01.960Z,10.80
2023-04-09T17:32:30.613Z,10.90
2023-04-09T17:34:59.662Z,10.70
2023-04-09T17:37:29.888Z,11.03
2023-04-09T17:39:58.186Z,10.80
2023-04-09T17:42:26.517Z,11.40
2023-04-09T17:44:55.027Z,11.43
2023-04-09T17:47:23.504Z,11.97
2023-04-09T17:49:53.163Z,11.90
2023-04-09T17:52:22.511Z,12.00
2023-04-09T17:54:52.248Z,11.23
2023-04-09T17:57:20.720Z,11.63
2023-04-09T17:59:49.086Z,11.63
2023-04-09T18:02:17.598Z,10.97
2023-04-09T18:04:46.115Z,11.33
2023-04-09T18:07:14.772Z,11.70
2023-04-09T18:09:43.102Z,11.37
2023-04-09T18:12:12.930Z,12.07
2023-04-09T18:14:41.311Z,11.00
2023-04-09T18:17:09.642Z,11.37
2023-04-09T18:19:37.930Z,11.17
2023-04-09T18:22:06.319Z,12.60
2023-04-09T18:24:35.133Z,11.83
2023-04-09T18:27:03.573Z,11.90
2023-04-09T18:29:33.376Z,12.03
2023-04-09T18:32:01.701Z,11.50
2023-04-09T18:34:30.114Z,12.23
2023-04-09T18:36:58.648Z,11.00
2023-04-09T18:39:27.478Z,11.50
2023-04-09T18:41:57.126Z,11.67
2023-04-09T18:44:26.101Z,11.33
2023-04-09T18:46:56.225Z,11.60
2023-04-09T18:49:26.878Z,17.70
2023-04-09T18:51:56.763Z,35.37
2023-04-09T18:54:25.829Z,45.33
2023-04-09T18:56:54.148Z,28.80
2023-04-09T18:59:22.633Z,22.23
2023-04-09T19:01:51.375Z,25.07
2023-04-09T19:04:21.554Z,29.00
2023-04-09T19:06:50.285Z,25.83
2023-04-09T19:09:19.116Z,26.37
2023-04-09T19:11:47.521Z,22.83
2023-04-09T19:14:16.016Z,19.37
2023-04-09T19:16:44.814Z,18.67
2023-04-09T19:19:13.363Z,16.90
2023-04-09T19:21:43.080Z,19.30
2023-04-09T19:24:11.429Z,19.10
2023-04-09T19:26:39.989Z,18.10
2023-04-09T19:29:08.464Z,16.27
2023-04-09T19:31:37.006Z,16.00
2023-04-09T19:34:06.178Z,15.47
2023-04-09T19:36:34.730Z,14.73
2023-04-09T19:39:05.686Z,14.00
2023-04-09T19:41:34.279Z,13.10
2023-04-09T19:44:03.369Z,13.70
2023-04-09T19:46:31.717Z,13.50
2023-04-09T19:49:00.060Z,13.43
2023-04-09T19:51:28.933Z,12.90
2023-04-09T19:53:57.949Z,13.03
2023-04-09T19:56:27.690Z,13.47
2023-04-09T19:58:56.411Z,12.60
2023-04-09T20:01:24.827Z,12.60
2023-04-09T20:03:53.584Z,12.10
2023-04-09T20:06:22.882Z,12.30
2023-04-09T20:08:53.201Z,12.83
2023-04-09T20:11:21.899Z,12.27
2023-04-09T20:13:52.084Z,12.97
2023-04-09T20:16:20.590Z,12.27
2023-04-09T20:18:49.007Z,12.87
2023-04-09T20:21:17.411Z,12.97
2023-04-09T20:23:46.268Z,12.33
2023-04-09T20:26:14.715Z,12.10
2023-04-09T20:28:43.227Z,12.97
2023-04-09T20:31:13.083Z,13.10
2023-04-09T20:33:41.618Z,12.70
2023-04-09T20:36:16.209Z,12.97
2023-04-09T20:38:44.648Z,12.70
2023-04-09T20:41:12.979Z,12.43
2023-04-09T20:43:41.373Z,12.13
2023-04-09T20:46:10.013Z,12.50
2023-04-09T20:48:39.799Z,11.87
2023-04-09T20:51:11.318Z,12.00
2023-04-09T20:53:40.075Z,12.77
2023-04-09T20:56:09.268Z,13.70
2023-04-09T20:58:37.778Z,12.60
2023-04-09T21:01:07.851Z,12.10
2023-04-09T21:03:37.059Z,12.67
2023-04-09T21:06:08.273Z,12.07
2023-04-09T21:08:38.459Z,12.27
2023-04-09T21:11:07.147Z,14.90
2023-04-09T21:13:46.840Z,13.20
2023-04-09T21:16:22.914Z,13.47
2023-04-09T21:18:51.636Z,13.10
2023-04-09T21:21:21.599Z,12.83
2023-04-09T21:23:49.993Z,12.43
2023-04-09T21:26:18.393Z,12.73
2023-04-09T21:28:50.522Z,12.30
2023-04-09T21:31:19.372Z,12.80
2023-04-09T21:33:47.882Z,12.23
2023-04-09T21:36:16.432Z,12.40
2023-04-09T21:38:46.304Z,11.20
2023-04-09T21:41:14.767Z,11.47
2023-04-09T21:43:43.252Z,11.60
2023-04-09T21:46:11.909Z,12.43
2023-04-09T21:48:40.980Z,11.37
2023-04-09T21:51:11.650Z,12.23
2023-04-09T21:53:40.441Z,12.77
2023-04-09T21:56:11.112Z,11.97
2023-04-09T21:58:39.487Z,11.47
2023-04-09T22:01:15.710Z,11.93
2023-04-09T22:03:51.365Z,12.87
2023-04-09T22:06:20.096Z,11.80
2023-04-09T22:08:55.631Z,12.13
2023-04-09T22:11:28.701Z,11.90
2023-04-09T22:13:57.910Z,11.30
2023-04-09T22:16:27.014Z,12.23
2023-04-09T22:18:56.169Z,12.20
2023-04-09T22:21:25.287Z,12.03
2023-04-09T22:23:53.683Z,12.00
2023-04-09T22:26:22.677Z,11.23
2023-04-09T22:28:52.575Z,11.13
2023-04-09T22:31:22.027Z,11.37
2023-04-09T22:33:50.606Z,11.40
2023-04-09T22:36:18.996Z,10.80
2023-04-09T22:38:47.475Z,11.87
2023-04-09T22:41:17.645Z,11.53
2023-04-09T22:43:46.120Z,11.83
2023-04-09T22:46:15.992Z,11.60
2023-04-09T22:48:46.533Z,11.90
2023-04-09T22:51:15.583Z,12.00
2023-04-09T22:53:44.017Z,12.00
2023-04-09T22:56:12.652Z,12.20
2023-04-09T22:58:41.206Z,11.90
2023-04-09T23:01:09.726Z,11.47
2023-04-09T23:03:39.525Z,11.63
2023-04-09T23:06:08.223Z,11.63
2023-04-09T23:08:37.811Z,11.80
2023-04-09T23:11:07.519Z,11.57
2023-04-09T23:13:36.111Z,11.63
2023-04-09T23:16:06.993Z,11.30
2023-04-09T23:18:38.110Z,11.83
2023-04-09T23:21:07.738Z,11.80
2023-04-09T23:23:36.465Z,11.20
2023-04-09T23:26:05.996Z,11.60
2023-04-09T23:28:34.516Z,11.90
2023-04-09T23:31:03.055Z,12.07
2023-04-09T23:33:32.559Z,12.03
2023-04-09T23:36:02.261Z,11.57
2023-04-09T23:38:30.810Z,11.30
2023-04-09T23:40:59.161Z,11.33
2023-04-09T23:43:27.644Z,12.70
2023-04-09T23:45:56.109Z,12.23
2023-04-09T23:48:24.421Z,12.10
2023-04-09T23:50:52.812Z,12.30
2023-04-09T23:53:22.568Z,11.80
2023-04-09T23:55:51.128Z,12.13
2023-04-09T23:58:19.769Z,12.30
